createdAt,value
2022-12-17T00:01:22.217Z,68.68
2022-12-17T00:04:09.594Z,68.69
2022-12-17T00:07:02.332Z,68.63
2022-12-17T00:09:50.473Z,68.58
2022-12-17T00:12:38.920Z,68.60
2022-12-17T00:15:26.752Z,68.77
2022-12-17T00:18:22.550Z,68.72
2022-12-17T00:21:14.373Z,68.85
2022-12-17T00:24:02.232Z,68.91
2022-12-17T00:26:59.006Z,68.80
2022-12-17T00:29:46.939Z,68.63
2022-12-17T00:32:34.421Z,68.66
2022-12-17T00:35:22.532Z,68.64
2022-12-17T00:38:10.430Z,68.72
2022-12-17T00:40:59.221Z,68.61
2022-12-17T00:43:47.883Z,68.64
2022-12-17T00:46:35.155Z,68.57
2022-12-17T00:49:22.971Z,68.52
2022-12-17T00:52:11.372Z,68.60
2022-12-17T00:54:58.741Z,68.72
2022-12-17T00:57:46.042Z,68.55
2022-12-17T01:00:35.114Z,68.56
2022-12-17T01:03:30.993Z,68.49
2022-12-17T01:06:22.692Z,68.42
2022-12-17T01:09:10.053Z,68.54
2022-12-17T01:11:58.010Z,68.62
2022-12-17T01:14:45.886Z,68.65
2022-12-17T01:17:33.393Z,68.74
2022-12-17T01:20:20.861Z,68.69
2022-12-17T01:23:08.953Z,68.75
2022-12-17T01:25:56.393Z,68.74
2022-12-17T01:28:45.282Z,68.62
2022-12-17T01:31:35.332Z,68.70
2022-12-17T01:34:22.713Z,68.54
2022-12-17T01:37:13.755Z,68.52
2022-12-17T01:40:01.347Z,68.54
2022-12-17T01:43:01.849Z,68.40
2022-12-17T01:45:56.882Z,68.69
2022-12-17T01:49:13.371Z,68.71
2022-12-17T01:52:01.430Z,68.72
2022-12-17T01:54:49.073Z,68.63
2022-12-17T01:57:36.296Z,68.49
2022-12-17T02:00:29.270Z,68.54
2022-12-17T02:03:18.309Z,68.67
2022-12-17T02:07:01.555Z,68.74
2022-12-17T02:10:04.420Z,68.86
2022-12-17T02:13:06.685Z,68.83
2022-12-17T02:16:13.775Z,68.82
2022-12-17T02:19:28.152Z,68.73
2022-12-17T02:22:23.516Z,68.58
2022-12-17T02:25:20.123Z,68.66
2022-12-17T02:28:07.970Z,68.67
2022-12-17T02:30:56.911Z,68.65
2022-12-17T02:33:45.355Z,68.70
2022-12-17T02:36:33.656Z,68.63
2022-12-17T02:39:21.475Z,68.61
2022-12-17T02:42:16.054Z,68.64
2022-12-17T02:45:05.143Z,68.48
2022-12-17T02:47:52.992Z,68.58
2022-12-17T02:50:43.211Z,68.46
2022-12-17T02:53:31.389Z,68.57
2022-12-17T02:56:19.263Z,68.38
2022-12-17T02:59:06.552Z,68.38
2022-12-17T03:01:54.961Z,68.51
2022-12-17T03:04:43.902Z,68.62
2022-12-17T03:07:31.806Z,68.64
2022-12-17T03:10:18.920Z,68.65
2022-12-17T03:13:03.014Z,68.67
2022-12-17T03:15:51.926Z,68.68
2022-12-17T03:18:39.833Z,68.58
2022-12-17T03:21:27.201Z,68.62
2022-12-17T03:24:14.893Z,68.54
2022-12-17T03:27:04.223Z,68.69
2022-12-17T03:29:51.443Z,68.66
2022-12-17T03:32:39.033Z,68.51
2022-12-17T03:35:38.500Z,68.41
2022-12-17T03:38:31.743Z,68.52
2022-12-17T03:41:19.010Z,68.47
2022-12-17T03:44:06.282Z,68.54
2022-12-17T03:46:53.503Z,68.54
2022-12-17T03:49:41.539Z,68.73
2022-12-17T03:52:28.820Z,68.82
2022-12-17T03:55:16.182Z,68.85
2022-12-17T03:58:03.483Z,68.94
2022-12-17T04:00:54.959Z,68.90
2022-12-17T04:03:42.279Z,68.81
2022-12-17T04:06:29.741Z,68.78
2022-12-17T04:09:17.193Z,68.67
2022-12-17T04:12:04.650Z,68.80
2022-12-17T04:14:54.390Z,68.93
2022-12-17T04:17:41.673Z,68.90
2022-12-17T04:20:29.647Z,68.87
2022-12-17T04:23:17.581Z,68.73
2022-12-17T04:26:04.786Z,68.73
2022-12-17T04:28:53.546Z,68.79
2022-12-17T04:31:41.184Z,68.71
2022-12-17T04:34:28.323Z,68.82
2022-12-17T04:37:15.703Z,68.77
2022-12-17T04:40:03.099Z,69.02
2022-12-17T04:42:50.463Z,69.06
2022-12-17T04:45:38.034Z,68.99
2022-12-17T04:48:26.866Z,69.13
2022-12-17T04:51:14.310Z,68.99
2022-12-17T04:54:01.892Z,69.12
2022-12-17T04:56:49.144Z,69.07
2022-12-17T04:59:36.471Z,69.02
2022-12-17T05:02:23.987Z,68.92
2022-12-17T05:05:19.949Z,69.00
2022-12-17T05:08:07.186Z,68.84
2022-12-17T05:10:55.959Z,69.04
2022-12-17T05:13:45.983Z,69.07
2022-12-17T05:16:33.714Z,69.02
2022-12-17T05:19:21.130Z,68.98
2022-12-17T05:22:08.650Z,68.99
2022-12-17T05:24:59.534Z,69.22
2022-12-17T05:27:47.201Z,69.21
2022-12-17T05:35:14.840Z,69.00
2022-12-17T05:42:29.816Z,69.16
2022-12-17T05:45:17.420Z,69.33
2022-12-17T05:48:05.073Z,69.23
2022-12-17T05:50:52.822Z,69.17
2022-12-17T05:53:45.939Z,69.29
2022-12-17T05:56:33.703Z,69.20
2022-12-17T05:59:21.326Z,69.24
2022-12-17T06:02:08.850Z,69.17
2022-12-17T06:05:01.810Z,69.19
2022-12-17T06:07:49.670Z,69.03
2022-12-17T06:10:37.259Z,69.30
2022-12-17T06:13:25.223Z,69.37
2022-12-17T06:16:12.394Z,69.46
2022-12-17T06:19:00.184Z,69.39
2022-12-17T06:21:48.495Z,69.41
2022-12-17T06:24:35.798Z,69.40
2022-12-17T06:27:22.992Z,69.28
2022-12-17T06:30:15.543Z,69.17
2022-12-17T06:33:05.832Z,69.14
2022-12-17T06:35:53.232Z,69.16
2022-12-17T06:38:40.702Z,69.27
2022-12-17T06:41:27.952Z,69.46
2022-12-17T06:44:16.342Z,69.47
2022-12-17T06:47:03.602Z,69.50
2022-12-17T06:49:50.803Z,69.58
2022-12-17T06:52:38.232Z,69.59
2022-12-17T06:55:26.570Z,69.62
2022-12-17T06:58:18.759Z,69.49
2022-12-17T07:01:06.955Z,69.55
2022-12-17T07:07:33.050Z,69.25
2022-12-17T07:10:23.341Z,69.30
2022-12-17T07:13:10.661Z,69.37
2022-12-17T07:15:58.208Z,69.36
2022-12-17T07:18:45.696Z,69.34
2022-12-17T07:21:32.910Z,69.46
2022-12-17T07:24:22.524Z,69.52
2022-12-17T07:27:09.760Z,69.66
2022-12-17T07:29:57.698Z,69.79
2022-12-17T07:32:44.924Z,69.72
2022-12-17T07:35:32.689Z,69.71
2022-12-17T07:38:21.559Z,69.47
2022-12-17T07:41:09.464Z,69.51
2022-12-17T07:43:57.000Z,69.51
2022-12-17T07:46:47.976Z,69.49
2022-12-17T07:49:35.504Z,69.53
2022-12-17T07:52:22.811Z,69.50
2022-12-17T07:55:13.188Z,69.61
2022-12-17T07:58:05.646Z,69.61
2022-12-17T08:00:53.017Z,69.66
2022-12-17T08:03:40.910Z,69.64
2022-12-17T08:06:28.892Z,69.70
2022-12-17T08:09:16.550Z,69.64
2022-12-17T08:12:03.851Z,69.50
2022-12-17T08:14:51.518Z,69.48
2022-12-17T08:17:39.745Z,69.66
2022-12-17T08:21:31.852Z,69.76
2022-12-17T08:24:18.632Z,69.57
2022-12-17T08:27:06.151Z,69.51
2022-12-17T08:29:53.505Z,69.58
2022-12-17T08:32:41.200Z,69.52
2022-12-17T08:35:29.029Z,69.57
2022-12-17T08:38:24.591Z,69.87
2022-12-17T08:41:14.960Z,69.91
2022-12-17T08:44:04.041Z,69.77
2022-12-17T08:46:51.924Z,69.96
2022-12-17T08:49:39.418Z,69.82
2022-12-17T08:52:27.173Z,70.55
2022-12-17T08:55:14.600Z,70.41
2022-12-17T08:58:13.883Z,69.75
2022-12-17T09:01:02.294Z,69.45
2022-12-17T09:03:49.818Z,69.60
2022-12-17T09:06:39.299Z,69.63
2022-12-17T09:09:27.380Z,69.60
2022-12-17T09:13:21.237Z,69.64
2022-12-17T09:16:15.692Z,69.66
2022-12-17T09:19:03.079Z,69.37
2022-12-17T09:22:56.058Z,69.43
2022-12-17T09:25:43.201Z,69.65
2022-12-17T09:28:30.674Z,69.77
2022-12-17T09:31:19.517Z,69.94
2022-12-17T09:34:07.039Z,69.73
2022-12-17T09:36:57.912Z,69.71
2022-12-17T09:39:45.452Z,69.78
2022-12-17T09:43:00.351Z,70.00
2022-12-17T09:45:54.665Z,70.03
2022-12-17T09:49:00.589Z,70.09
2022-12-17T09:51:48.820Z,69.94
2022-12-17T09:54:44.222Z,70.06
2022-12-17T09:57:39.145Z,70.04
2022-12-17T10:00:45.542Z,69.96
2022-12-17T10:03:42.700Z,69.96
2022-12-17T10:07:44.319Z,70.02
2022-12-17T10:10:46.056Z,70.01
2022-12-17T10:13:38.786Z,70.09
2022-12-17T10:16:47.552Z,69.95
2022-12-17T10:19:46.105Z,69.94
2022-12-17T10:22:50.419Z,70.00
2022-12-17T10:25:42.311Z,70.10
2022-12-17T10:28:32.879Z,70.29
2022-12-17T10:31:24.130Z,70.18
2022-12-17T10:34:15.868Z,70.33
2022-12-17T10:37:07.066Z,70.40
2022-12-17T10:39:55.032Z,70.38
2022-12-17T10:42:46.900Z,70.37
2022-12-17T10:45:42.250Z,70.47
2022-12-17T10:48:45.711Z,70.36
2022-12-17T10:51:51.039Z,70.13
2022-12-17T10:54:50.548Z,70.10
2022-12-17T10:57:55.127Z,70.10
2022-12-17T11:01:23.667Z,70.30
2022-12-17T11:04:13.760Z,70.56
2022-12-17T11:07:06.695Z,70.58
2022-12-17T11:10:08.475Z,70.39
2022-12-17T11:13:20.845Z,70.58
2022-12-17T11:16:11.722Z,70.65
2022-12-17T11:19:03.703Z,70.66
2022-12-17T11:21:58.307Z,70.49
2022-12-17T11:24:54.363Z,70.55
2022-12-17T11:27:54.590Z,70.68
2022-12-17T11:30:56.597Z,70.63
2022-12-17T11:33:53.468Z,70.82
2022-12-17T11:36:46.176Z,70.93
2022-12-17T11:40:02.996Z,70.76
2022-12-17T11:42:56.692Z,70.61
2022-12-17T11:50:20.873Z,70.73
2022-12-17T11:53:38.130Z,70.48
2022-12-17T11:56:35.431Z,70.57
2022-12-17T11:59:51.143Z,70.73
2022-12-17T12:03:18.427Z,70.84
2022-12-17T12:06:16.651Z,70.89
2022-12-17T12:09:31.754Z,70.97
2022-12-17T12:12:25.273Z,71.00
2022-12-17T12:15:24.936Z,70.90
2022-12-17T12:18:18.362Z,71.01
2022-12-17T12:21:31.072Z,70.92
2022-12-17T12:24:39.441Z,70.92
2022-12-17T12:27:48.881Z,70.90
2022-12-17T12:30:42.417Z,70.88
2022-12-17T12:33:54.702Z,70.83
2022-12-17T12:36:45.574Z,70.68
2022-12-17T12:39:40.576Z,71.09
2022-12-17T12:42:46.572Z,71.12
2022-12-17T12:45:55.422Z,71.16
2022-12-17T12:49:01.331Z,71.17
2022-12-17T12:51:52.791Z,71.25
2022-12-17T12:54:42.985Z,71.18
2022-12-17T12:57:53.928Z,71.06
2022-12-17T13:00:43.250Z,71.15
2022-12-17T13:07:44.936Z,71.07
2022-12-17T13:10:31.755Z,71.12
2022-12-17T13:13:18.706Z,71.27
2022-12-17T13:15:59.390Z,71.55
2022-12-17T13:18:41.357Z,71.63
2022-12-17T13:21:17.971Z,71.51
2022-12-17T13:23:48.379Z,71.56
2022-12-17T13:26:31.965Z,71.49
2022-12-17T13:29:13.564Z,71.58
2022-12-17T13:31:54.459Z,71.61
2022-12-17T13:34:55.503Z,71.62
2022-12-17T13:38:59.830Z,71.59
2022-12-17T13:41:33.816Z,71.75
2022-12-17T13:44:20.057Z,71.79
2022-12-17T13:46:52.632Z,71.84
2022-12-17T13:49:31.933Z,71.82
2022-12-17T13:52:19.756Z,71.85
2022-12-17T13:54:50.312Z,71.96
2022-12-17T13:57:23.525Z,71.91
2022-12-17T13:59:59.195Z,71.74
2022-12-17T14:02:42.920Z,71.87
2022-12-17T14:05:33.585Z,71.82
2022-12-17T14:08:09.426Z,71.78
2022-12-17T14:10:40.064Z,71.65
2022-12-17T14:13:16.478Z,71.87
2022-12-17T14:15:53.389Z,71.96
2022-12-17T14:18:24.102Z,71.72
2022-12-17T14:20:57.853Z,71.79
2022-12-17T14:23:33.510Z,71.86
2022-12-17T14:26:04.074Z,71.91
2022-12-17T14:28:50.181Z,71.95
2022-12-17T14:31:27.638Z,72.38
2022-12-17T14:34:11.685Z,72.88
2022-12-17T14:36:48.697Z,72.06
2022-12-17T14:39:25.129Z,71.76
2022-12-17T14:42:15.567Z,71.46
2022-12-17T14:45:08.311Z,71.48
2022-12-17T14:47:39.773Z,71.49
2022-12-17T14:50:19.457Z,71.59
2022-12-17T14:52:54.955Z,71.54
2022-12-17T14:55:40.607Z,71.73
2022-12-17T14:58:15.185Z,71.84
2022-12-17T15:00:59.623Z,71.80
2022-12-17T15:03:33.881Z,71.68
2022-12-17T15:06:07.001Z,71.76
2022-12-17T15:08:51.345Z,71.64
2022-12-17T15:11:23.393Z,71.87
2022-12-17T15:13:56.662Z,71.75
2022-12-17T15:16:27.482Z,71.68
2022-12-17T15:18:57.937Z,71.62
2022-12-17T15:21:29.155Z,71.65
2022-12-17T15:23:59.649Z,71.57
2022-12-17T15:26:30.199Z,71.75
2022-12-17T15:29:00.673Z,71.80
2022-12-17T15:31:35.455Z,71.91
2022-12-17T15:34:07.002Z,71.83
2022-12-17T15:36:37.920Z,71.93
2022-12-17T15:39:09.933Z,71.97
2022-12-17T15:42:01.014Z,71.87
2022-12-17T15:45:04.022Z,72.01
2022-12-17T15:47:34.650Z,71.87
2022-12-17T15:50:07.477Z,71.86
2022-12-17T15:52:38.288Z,71.80
2022-12-17T15:55:09.323Z,71.83
2022-12-17T15:57:39.890Z,71.76
2022-12-17T16:00:11.352Z,71.87
2022-12-17T16:02:43.380Z,71.95
2022-12-17T16:05:21.160Z,71.90
2022-12-17T16:07:53.330Z,72.05
2022-12-17T16:10:23.704Z,72.10
2022-12-17T16:12:55.112Z,72.09
2022-12-17T16:15:25.712Z,72.02
2022-12-17T16:17:56.650Z,71.90
2022-12-17T16:20:28.514Z,71.96
2022-12-17T16:22:58.924Z,71.90
2022-12-17T16:25:29.571Z,71.90
2022-12-17T16:28:01.706Z,71.95
2022-12-17T16:30:32.927Z,71.90
2022-12-17T16:33:04.419Z,71.93
2022-12-17T16:35:35.908Z,72.06
2022-12-17T16:38:07.575Z,72.03
2022-12-17T16:40:41.577Z,72.14
2022-12-17T16:43:12.702Z,72.13
2022-12-17T16:45:50.927Z,72.26
2022-12-17T16:48:25.181Z,72.08
2022-12-17T16:50:56.928Z,72.10
2022-12-17T16:53:28.120Z,72.15
2022-12-17T16:55:58.572Z,72.21
2022-12-17T16:58:28.883Z,72.15
2022-12-17T17:00:59.613Z,72.13
2022-12-17T17:03:30.257Z,72.16
2022-12-17T17:06:05.263Z,72.12
2022-12-17T17:08:39.550Z,72.30
2022-12-17T17:11:15.211Z,72.24
2022-12-17T17:13:46.001Z,72.30
2022-12-17T17:16:16.838Z,72.30
2022-12-17T17:18:47.342Z,72.29
2022-12-17T17:21:20.793Z,72.29
2022-12-17T17:23:57.358Z,72.31
2022-12-17T17:26:30.603Z,72.28
2022-12-17T17:29:02.319Z,72.36
2022-12-17T17:32:08.586Z,72.32
2022-12-17T17:34:23.753Z,72.26
2022-12-17T17:36:54.253Z,72.21
2022-12-17T17:39:25.330Z,72.39
2022-12-17T17:41:56.152Z,72.40
2022-12-17T17:44:26.781Z,72.51
2022-12-17T17:46:57.277Z,72.61
2022-12-17T17:49:29.665Z,72.61
2022-12-17T17:52:11.563Z,72.82
2022-12-17T17:54:42.782Z,72.62
2022-12-17T17:57:14.005Z,72.55
2022-12-17T17:59:44.674Z,72.47
2022-12-17T18:02:15.666Z,72.47
2022-12-17T18:04:47.562Z,72.37
2022-12-17T18:17:12.010Z,72.54
2022-12-17T18:19:44.088Z,72.80
2022-12-17T18:22:15.089Z,72.76
2022-12-17T18:24:47.271Z,72.75
2022-12-17T18:27:23.602Z,72.79
2022-12-17T18:30:05.251Z,72.84
2022-12-17T18:33:03.463Z,72.83
2022-12-17T18:35:31.782Z,72.76
2022-12-17T18:38:07.905Z,72.64
2022-12-17T18:40:38.749Z,72.74
2022-12-17T18:43:26.718Z,72.74
2022-12-17T18:45:57.717Z,72.97
2022-12-17T18:48:31.324Z,73.00
2022-12-17T18:51:08.039Z,72.93
2022-12-17T18:53:38.563Z,72.89
2022-12-17T18:56:11.967Z,72.94
2022-12-17T18:58:48.656Z,72.90
2022-12-17T19:01:27.583Z,72.89
2022-12-17T19:03:59.904Z,72.98
2022-12-17T19:06:30.722Z,72.94
2022-12-17T19:09:06.061Z,72.75
2022-12-17T19:11:43.438Z,72.69
2022-12-17T19:14:15.634Z,73.00
2022-12-17T19:16:47.765Z,73.02
2022-12-17T19:19:18.846Z,73.00
2022-12-17T19:21:52.664Z,72.94
2022-12-17T19:24:39.267Z,72.95
2022-12-17T19:27:10.683Z,72.89
2022-12-17T19:29:46.215Z,72.84
2022-12-17T19:32:20.044Z,72.85
2022-12-17T19:34:51.123Z,72.87
2022-12-17T19:37:29.492Z,72.87
2022-12-17T19:40:03.080Z,72.74
2022-12-17T19:46:42.826Z,72.89
2022-12-17T19:49:18.202Z,72.79
2022-12-17T19:51:49.008Z,72.88
2022-12-17T19:54:21.934Z,72.94
2022-12-17T19:56:57.655Z,72.91
2022-12-17T19:59:34.775Z,72.93
2022-12-17T20:02:09.619Z,73.05
2022-12-17T20:04:40.289Z,73.12
2022-12-17T20:07:11.197Z,73.17
2022-12-17T20:09:44.498Z,72.98
2022-12-17T20:12:17.315Z,72.88
2022-12-17T20:14:48.733Z,73.09
2022-12-17T20:17:22.763Z,73.32
2022-12-17T20:19:57.767Z,73.25
2022-12-17T20:22:29.621Z,73.36
2022-12-17T20:25:05.654Z,73.35
2022-12-17T20:27:36.761Z,73.10
2022-12-17T20:30:09.250Z,73.10
2022-12-17T20:32:40.706Z,73.20
2022-12-17T20:35:14.172Z,73.05
2022-12-17T20:37:47.185Z,73.12
2022-12-17T20:40:17.581Z,73.05
2022-12-17T20:42:48.554Z,73.18
2022-12-17T20:45:20.593Z,73.36
2022-12-17T20:48:01.276Z,73.29
2022-12-17T20:50:31.905Z,73.38
2022-12-17T20:53:02.756Z,73.49
2022-12-17T20:55:33.761Z,73.46
2022-12-17T20:58:04.883Z,73.36
2022-12-17T21:05:09.026Z,73.23
2022-12-17T21:07:40.154Z,73.33
2022-12-17T21:10:11.775Z,73.30
2022-12-17T21:13:00.049Z,73.32
2022-12-17T21:15:34.153Z,73.38
2022-12-17T21:18:06.303Z,73.44
2022-12-17T21:20:37.861Z,73.38
2022-12-17T21:23:08.792Z,73.45
2022-12-17T21:25:39.402Z,73.39
2022-12-17T21:28:11.517Z,73.28
2022-12-17T21:35:26.864Z,73.42
2022-12-17T21:37:57.792Z,73.24
2022-12-17T21:40:28.375Z,73.17
2022-12-17T21:43:04.735Z,73.40
2022-12-17T21:45:40.390Z,73.46
2022-12-17T21:48:15.388Z,73.53
2022-12-17T21:50:47.523Z,73.62
2022-12-17T21:58:39.519Z,73.31
2022-12-17T22:01:41.984Z,73.37
2022-12-17T22:13:47.263Z,73.19
2022-12-17T22:14:20.866Z,73.35
2022-12-17T22:16:49.942Z,73.46
2022-12-17T22:19:46.939Z,73.43
2022-12-17T22:26:35.251Z,73.59
2022-12-17T22:29:10.402Z,73.33
2022-12-17T22:32:12.763Z,73.39
2022-12-17T22:39:10.738Z,73.52
2022-12-17T22:44:34.917Z,73.46
2022-12-17T22:44:54.403Z,73.41
2022-12-17T22:47:35.503Z,73.58
2022-12-17T22:50:21.880Z,73.60
2022-12-17T22:53:00.202Z,73.53
2022-12-17T22:55:31.750Z,73.57
2022-12-17T22:58:05.769Z,73.48
2022-12-17T23:00:38.205Z,73.56
2022-12-17T23:03:12.802Z,73.53
2022-12-17T23:05:48.993Z,73.36
2022-12-17T23:08:55.149Z,73.42
2022-12-17T23:11:37.768Z,73.25
2022-12-17T23:14:10.208Z,73.50
2022-12-17T23:16:43.830Z,73.58
2022-12-17T23:19:16.459Z,73.64
2022-12-17T23:21:47.531Z,73.63
2022-12-17T23:24:19.874Z,73.57
2022-12-17T23:26:53.481Z,73.40
2022-12-17T23:29:24.732Z,73.47
2022-12-17T23:31:57.567Z,73.42
2022-12-17T23:34:28.431Z,73.25
2022-12-17T23:37:03.698Z,73.03
2022-12-17T23:39:34.417Z,72.99
2022-12-17T23:42:06.227Z,73.11
2022-12-17T23:44:36.721Z,73.18
2022-12-17T23:47:07.201Z,73.26
2022-12-17T23:49:37.830Z,73.34
2022-12-17T23:52:08.151Z,73.42
2022-12-17T23:56:00.225Z,73.18
2022-12-17T23:58:36.956Z,73.25
